TimeEST,TemperatureF,Dew PointF,Humidity,Sea Level PressureIn,VisibilityMPH,Wind Direction,Wind SpeedMPH,Gust SpeedMPH,PrecipitationIn,Events,Conditions,WindDirDegrees,DateUTC
12:55 AM,21.2,4.6,49,30.14,10.0,WNW,12.7,24.2,N/A,,Clear,290,2013-02-02 05:55:00
1:55 AM,20.5,4.6,50,30.16,10.0,WNW,21.9,27.6,N/A,,Partly Cloudy,300,2013-02-02 06:55:00
2:55 AM,19.6,2.7,48,30.18,10.0,WNW,11.5,-,N/A,,Clear,290,2013-02-02 07:55:00
3:55 AM,18.7,1.8,48,30.19,10.0,West,16.1,-,N/A,,Clear,280,2013-02-02 08:55:00
4:55 AM,17.1,2.1,52,30.21,10.0,West,5.8,-,N/A,,Clear,260,2013-02-02 09:55:00
5:55 AM,16.3,1.6,52,30.22,10.0,West,6.9,-,N/A,,Clear,270,2013-02-02 10:55:00
6:55 AM,15.3,2.3,57,30.23,10.0,West,4.6,-,N/A,,Clear,260,2013-02-02 11:55:00
7:55 AM,17.4,2.7,52,30.25,10.0,Calm,Calm,-,N/A,,Clear,0,2013-02-02 12:55:00
8:55 AM,20.1,3.6,49,30.25,10.0,SW,6.9,-,N/A,,Clear,230,2013-02-02 13:55:00
10:55 AM,25.3,7.9,48,30.22,10.0,SSW,11.5,19.6,N/A,,Mostly Cloudy,210,2013-02-02 15:55:00
11:55 AM,27.3,7.2,43,30.18,10.0,South,12.7,18.4,N/A,,Partly Cloudy,190,2013-02-02 16:55:00
12:55 PM,28.6,6.6,39,30.13,10.0,South,15.0,21.9,N/A,,Partly Cloudy,190,2013-02-02 17:55:00
1:55 PM,30.9,5.9,35,30.09,10.0,SSW,12.7,-,N/A,,Mostly Cloudy,210,2013-02-02 18:55:00
2:55 PM,29.5,5.2,36,30.08,10.0,South,16.1,20.7,N/A,,Mostly Cloudy,180,2013-02-02 19:55:00
3:55 PM,28.4,4.8,37,30.06,10.0,South,11.5,21.9,N/A,,Mostly Cloudy,190,2013-02-02 20:55:00
4:55 PM,27.7,3.2,35,30.05,10.0,South,11.5,-,N/A,,Scattered Clouds,190,2013-02-02 21:55:00
5:55 PM,26.4,4.5,39,30.05,10.0,South,10.4,-,N/A,,Clear,190,2013-02-02 22:55:00
6:55 PM,26.2,6.1,42,30.05,10.0,SSW,10.4,-,N/A,,Clear,200,2013-02-02 23:55:00
7:55 PM,25.3,7.2,46,30.06,10.0,WSW,8.1,-,N/A,,Clear,240,2013-02-03 00:55:00
8:55 PM,25.3,8.4,49,30.05,10.0,SW,10.4,-,N/A,,Clear,230,2013-02-03 01:55:00
9:55 PM,24.4,11.7,58,30.06,10.0,SW,11.5,-,N/A,,Clear,230,2013-02-03 02:55:00
10:55 PM,23.4,12.6,63,30.06,10.0,WSW,13.8,-,N/A,,Clear,240,2013-02-03 03:55:00
11:13 PM,23.0,12.2,63,30.06,10.0,WSW,11.5,-,N/A,Snow,Light Snow,240,2013-02-03 04:13:00